Terminal Aerodrome Forecast
Issued by NWS Sioux Falls, SD

Home | Current Version | Previous Version | Text Only | Print | Product List | Glossary On
Versions: 1 2 3 4 5 6 7 8 9 10 11 12 13 14 15 16
000
FTUS43 KFSD 171125
TAFHON
TAF
KHON 171125Z 1712/1812 31011KT P6SM FEW250
     FM172000 29008KT P6SM FEW250
     FM172300 VRB05KT P6SM FEW120
     FM180400 16006KT P6SM VCSH BKN100
     FM181000 17005KT P6SM SCT120=

USA.gov is the U.S. government's official web portal to all federal, state and local government web resources and services.